KFHR/FHR METAR and TAF weather

Enter ICAO airport designator
Station Type Date Time Source
KFHR METAR 2020/08/12 17:53 UTC NOAA

KFHR 121753Z AUTO 22007KT 10SM CLR 17/10 A3005 RMK AO2 SLP176 T01720100 10178 20094 53010


Station Type Date Time Source
KFHR Decoded METAR 2020/08/12 17:53 UTC NOAA

FRIDAY HARBOR AIRPORT, WA, United States (KFHR) 48-31N 123-02W 32M
Aug 12, 2020 - 01:53 PM EDT / 2020.08.12 1753 UTC
Wind: from the SW (220 degrees) at 8 MPH (7 KT):0
Visibility: 10 mile(s):0
Sky conditions: clear
Temperature: 63.0 F (17.2 C)
Dew Point: 50.0 F (10.0 C)
Relative Humidity: 62%
Pressure (altimeter): 30.05 in. Hg (1017 hPa)
Pressure tendency: 0.03 inches (1.0 hPa) higher than three hours ago
ob: KFHR 121753Z AUTO 22007KT 10SM CLR 17/10 A3005 RMK AO2 SLP176 T01720100 10178 20094 53010
cycle: 18

Station Type Date Time Source
KFHR TAF UTC NOAA

Error!

Example: see airport list